sensor_id;sensor_type;location;lat;lon;timestamp;P1;P2;P0
39955;PMS5003;25631;51.516;-0.470;2022-10-26T00:02:22;4;3;
39955;PMS5003;25631;51.516;-0.470;2022-10-26T00:04:58;4;3;
39955;PMS5003;25631;51.516;-0.470;2022-10-26T00:07:35;4;4;
39955;PMS5003;25631;51.516;-0.470;2022-10-26T00:10:11;3;3;
39955;PMS5003;25631;51.516;-0.470;2022-10-26T00:12:48;3;3;
39955;PMS5003;25631;51.516;-0.470;2022-10-26T00:15:25;3;3;
39955;PMS5003;25631;51.516;-0.470;2022-10-26T00:20:15;3;3;
39955;PMS5003;25631;51.516;-0.470;2022-10-26T00:22:51;4;3;
39955;PMS5003;25631;51.516;-0.470;2022-10-26T00:25:27;4;3;
39955;PMS5003;25631;51.516;-0.470;2022-10-26T00:28:04;4;3;
39955;PMS5003;25631;51.516;-0.470;2022-10-26T00:30:40;4;3;
39955;PMS5003;25631;51.516;-0.470;2022-10-26T00:33:16;4;3;
39955;PMS5003;25631;51.516;-0.470;2022-10-26T00:35:53;5;4;
39955;PMS5003;25631;51.516;-0.470;2022-10-26T00:38:29;5;4;
39955;PMS5003;25631;51.516;-0.470;2022-10-26T00:41:06;5;4;
39955;PMS5003;25631;51.516;-0.470;2022-10-26T00:43:43;5;4;
39955;PMS5003;25631;51.516;-0.470;2022-10-26T00:46:20;5;4;
39955;PMS5003;25631;51.516;-0.470;2022-10-26T00:48:59;5;4;
39955;PMS5003;25631;51.516;-0.470;2022-10-26T00:51:40;5;4;
39955;PMS5003;25631;51.516;-0.470;2022-10-26T00:54:19;5;4;
39955;PMS5003;25631;51.516;-0.470;2022-10-26T00:56:56;5;4;
39955;PMS5003;25631;51.516;-0.470;2022-10-26T00:59:32;5;4;
39955;PMS5003;25631;51.516;-0.470;2022-10-26T01:02:09;4;4;
39955;PMS5003;25631;51.516;-0.470;2022-10-26T01:04:46;4;4;
39955;PMS5003;25631;51.516;-0.470;2022-10-26T01:07:23;4;4;
39955;PMS5003;25631;51.516;-0.470;2022-10-26T01:10:00;4;3;
39955;PMS5003;25631;51.516;-0.470;2022-10-26T01:12:37;4;3;
39955;PMS5003;25631;51.516;-0.470;2022-10-26T01:15:14;4;3;
39955;PMS5003;25631;51.516;-0.470;2022-10-26T01:17:53;4;3;
39955;PMS5003;25631;51.516;-0.470;2022-10-26T01:20:38;4;3;
39955;PMS5003;25631;51.516;-0.470;2022-10-26T01:23:28;4;3;
39955;PMS5003;25631;51.516;-0.470;2022-10-26T01:26:16;4;3;
39955;PMS5003;25631;51.516;-0.470;2022-10-26T01:29:45;4;3;
39955;PMS5003;25631;51.516;-0.470;2022-10-26T01:33:32;4;3;
39955;PMS5003;25631;51.516;-0.470;2022-10-26T01:36:12;4;3;
39955;PMS5003;25631;51.516;-0.470;2022-10-26T01:38:56;4;3;
39955;PMS5003;25631;51.516;-0.470;2022-10-26T01:41:38;4;3;
39955;PMS5003;25631;51.516;-0.470;2022-10-26T01:44:20;2;2;
39955;PMS5003;25631;51.516;-0.470;2022-10-26T01:47:01;2;2;
39955;PMS5003;25631;51.516;-0.470;2022-10-26T01:49:40;2;2;
39955;PMS5003;25631;51.516;-0.470;2022-10-26T01:52:21;3;3;
39955;PMS5003;25631;51.516;-0.470;2022-10-26T01:54:59;3;3;
39955;PMS5003;25631;51.516;-0.470;2022-10-26T01:57:36;3;3;
39955;PMS5003;25631;51.516;-0.470;2022-10-26T02:00:13;3;3;
39955;PMS5003;25631;51.516;-0.470;2022-10-26T02:02:53;3;3;
39955;PMS5003;25631;51.516;-0.470;2022-10-26T02:05:42;3;3;
39955;PMS5003;25631;51.516;-0.470;2022-10-26T02:08:32;2;2;
39955;PMS5003;25631;51.516;-0.470;2022-10-26T02:11:23;2;2;
39955;PMS5003;25631;51.516;-0.470;2022-10-26T02:14:10;2;2;
39955;PMS5003;25631;51.516;-0.470;2022-10-26T02:16:53;2;2;
39955;PMS5003;25631;51.516;-0.470;2022-10-26T02:19:33;2;2;
39955;PMS5003;25631;51.516;-0.470;2022-10-26T02:22:15;2;2;
39955;PMS5003;25631;51.516;-0.470;2022-10-26T02:24:56;3;3;
39955;PMS5003;25631;51.516;-0.470;2022-10-26T02:27:39;3;3;
39955;PMS5003;25631;51.516;-0.470;2022-10-26T02:30:19;3;3;
39955;PMS5003;25631;51.516;-0.470;2022-10-26T02:32:55;3;3;
39955;PMS5003;25631;51.516;-0.470;2022-10-26T02:35:34;3;3;
39955;PMS5003;25631;51.516;-0.470;2022-10-26T02:38:13;3;3;
39955;PMS5003;25631;51.516;-0.470;2022-10-26T02:40:53;4;3;
39955;PMS5003;25631;51.516;-0.470;2022-10-26T02:43:32;4;3;
39955;PMS5003;25631;51.516;-0.470;2022-10-26T02:46:16;4;3;
39955;PMS5003;25631;51.516;-0.470;2022-10-26T02:48:55;3;2;
39955;PMS5003;25631;51.516;-0.470;2022-10-26T02:51:33;3;2;
39955;PMS5003;25631;51.516;-0.470;2022-10-26T02:54:15;3;2;
39955;PMS5003;25631;51.516;-0.470;2022-10-26T02:56:58;3;2;
39955;PMS5003;25631;51.516;-0.470;2022-10-26T02:59:37;3;2;
39955;PMS5003;25631;51.516;-0.470;2022-10-26T03:02:18;3;2;
39955;PMS5003;25631;51.516;-0.470;2022-10-26T03:04:55;4;3;
39955;PMS5003;25631;51.516;-0.470;2022-10-26T03:07:41;4;3;
39955;PMS5003;25631;51.516;-0.470;2022-10-26T03:10:18;4;3;
39955;PMS5003;25631;51.516;-0.470;2022-10-26T03:12:54;4;3;
39955;PMS5003;25631;51.516;-0.470;2022-10-26T03:15:31;4;3;
39955;PMS5003;25631;51.516;-0.470;2022-10-26T03:18:07;4;3;
39955;PMS5003;25631;51.516;-0.470;2022-10-26T03:20:44;4;3;
39955;PMS5003;25631;51.516;-0.470;2022-10-26T03:23:20;4;3;
39955;PMS5003;25631;51.516;-0.470;2022-10-26T03:25:57;4;3;
39955;PMS5003;25631;51.516;-0.470;2022-10-26T03:28:34;5;3;
39955;PMS5003;25631;51.516;-0.470;2022-10-26T03:31:10;5;3;
39955;PMS5003;25631;51.516;-0.470;2022-10-26T03:33:47;5;3;
39955;PMS5003;25631;51.516;-0.470;2022-10-26T03:36:23;5;4;
39955;PMS5003;25631;51.516;-0.470;2022-10-26T03:39:00;5;4;
39955;PMS5003;25631;51.516;-0.470;2022-10-26T03:41:36;5;4;
39955;PMS5003;25631;51.516;-0.470;2022-10-26T03:44:13;4;3;
39955;PMS5003;25631;51.516;-0.470;2022-10-26T03:46:49;4;3;
39955;PMS5003;25631;51.516;-0.470;2022-10-26T03:49:26;4;3;
39955;PMS5003;25631;51.516;-0.470;2022-10-26T03:52:02;4;3;
39955;PMS5003;25631;51.516;-0.470;2022-10-26T03:54:39;4;3;
39955;PMS5003;25631;51.516;-0.470;2022-10-26T03:57:15;4;3;
39955;PMS5003;25631;51.516;-0.470;2022-10-26T03:59:52;4;3;
39955;PMS5003;25631;51.516;-0.470;2022-10-26T04:02:28;4;3;
39955;PMS5003;25631;51.516;-0.470;2022-10-26T04:05:05;4;3;
39955;PMS5003;25631;51.516;-0.470;2022-10-26T04:07:42;4;3;
39955;PMS5003;25631;51.516;-0.470;2022-10-26T04:10:18;4;3;
39955;PMS5003;25631;51.516;-0.470;2022-10-26T04:12:55;4;3;
39955;PMS5003;25631;51.516;-0.470;2022-10-26T04:15:32;4;3;
39955;PMS5003;25631;51.516;-0.470;2022-10-26T04:18:08;4;3;
39955;PMS5003;25631;51.516;-0.470;2022-10-26T04:20:45;4;3;
39955;PMS5003;25631;51.516;-0.470;2022-10-26T04:23:21;3;2;
39955;PMS5003;25631;51.516;-0.470;2022-10-26T04:25:58;3;2;
39955;PMS5003;25631;51.516;-0.470;2022-10-26T04:28:34;3;2;
39955;PMS5003;25631;51.516;-0.470;2022-10-26T04:31:10;3;2;
39955;PMS5003;25631;51.516;-0.470;2022-10-26T04:33:46;3;2;
39955;PMS5003;25631;51.516;-0.470;2022-10-26T04:36:23;3;2;
39955;PMS5003;25631;51.516;-0.470;2022-10-26T04:38:59;3;2;
39955;PMS5003;25631;51.516;-0.470;2022-10-26T04:41:36;3;2;
39955;PMS5003;25631;51.516;-0.470;2022-10-26T04:44:12;3;2;
39955;PMS5003;25631;51.516;-0.470;2022-10-26T04:46:49;2;2;
39955;PMS5003;25631;51.516;-0.470;2022-10-26T04:49:25;2;2;
39955;PMS5003;25631;51.516;-0.470;2022-10-26T04:52:02;2;2;
39955;PMS5003;25631;51.516;-0.470;2022-10-26T04:54:40;2;2;
39955;PMS5003;25631;51.516;-0.470;2022-10-26T04:57:16;2;2;
39955;PMS5003;25631;51.516;-0.470;2022-10-26T04:59:53;2;2;
39955;PMS5003;25631;51.516;-0.470;2022-10-26T05:02:29;2;2;
39955;PMS5003;25631;51.516;-0.470;2022-10-26T05:05:06;2;2;
39955;PMS5003;25631;51.516;-0.470;2022-10-26T05:07:42;2;2;
39955;PMS5003;25631;51.516;-0.470;2022-10-26T05:10:19;2;2;
39955;PMS5003;25631;51.516;-0.470;2022-10-26T05:12:56;2;2;
39955;PMS5003;25631;51.516;-0.470;2022-10-26T05:15:33;2;2;
39955;PMS5003;25631;51.516;-0.470;2022-10-26T05:18:10;2;2;
39955;PMS5003;25631;51.516;-0.470;2022-10-26T05:20:46;2;2;
39955;PMS5003;25631;51.516;-0.470;2022-10-26T05:23:23;2;2;
39955;PMS5003;25631;51.516;-0.470;2022-10-26T05:25:59;2;2;
39955;PMS5003;25631;51.516;-0.470;2022-10-26T05:28:36;2;2;
39955;PMS5003;25631;51.516;-0.470;2022-10-26T05:31:12;2;2;
39955;PMS5003;25631;51.516;-0.470;2022-10-26T05:33:49;2;2;
39955;PMS5003;25631;51.516;-0.470;2022-10-26T05:36:25;2;2;
39955;PMS5003;25631;51.516;-0.470;2022-10-26T05:39:02;2;2;
39955;PMS5003;25631;51.516;-0.470;2022-10-26T05:41:38;2;2;
39955;PMS5003;25631;51.516;-0.470;2022-10-26T05:44:15;2;2;
39955;PMS5003;25631;51.516;-0.470;2022-10-26T05:46:51;2;2;
39955;PMS5003;25631;51.516;-0.470;2022-10-26T05:49:27;2;2;
39955;PMS5003;25631;51.516;-0.470;2022-10-26T05:52:04;2;2;
39955;PMS5003;25631;51.516;-0.470;2022-10-26T05:54:40;2;2;
39955;PMS5003;25631;51.516;-0.470;2022-10-26T05:57:17;3;3;
39955;PMS5003;25631;51.516;-0.470;2022-10-26T05:59:54;3;3;
39955;PMS5003;25631;51.516;-0.470;2022-10-26T06:02:32;3;3;
39955;PMS5003;25631;51.516;-0.470;2022-10-26T06:05:19;3;3;
39955;PMS5003;25631;51.516;-0.470;2022-10-26T06:07:58;3;3;
39955;PMS5003;25631;51.516;-0.470;2022-10-26T06:10:36;3;3;
39955;PMS5003;25631;51.516;-0.470;2022-10-26T06:13:13;3;3;
39955;PMS5003;25631;51.516;-0.470;2022-10-26T06:15:57;3;3;
39955;PMS5003;25631;51.516;-0.470;2022-10-26T06:18:45;3;3;
39955;PMS5003;25631;51.516;-0.470;2022-10-26T06:21:33;3;3;
39955;PMS5003;25631;51.516;-0.470;2022-10-26T06:24:23;3;3;
39955;PMS5003;25631;51.516;-0.470;2022-10-26T06:27:11;3;3;
39955;PMS5003;25631;51.516;-0.470;2022-10-26T06:29:56;4;3;
39955;PMS5003;25631;51.516;-0.470;2022-10-26T06:32:36;4;3;
39955;PMS5003;25631;51.516;-0.470;2022-10-26T06:35:18;4;3;
39955;PMS5003;25631;51.516;-0.470;2022-10-26T06:38:00;3;3;
39955;PMS5003;25631;51.516;-0.470;2022-10-26T06:40:39;3;3;
39955;PMS5003;25631;51.516;-0.470;2022-10-26T06:43:22;3;3;
39955;PMS5003;25631;51.516;-0.470;2022-10-26T06:46:02;4;4;
39955;PMS5003;25631;51.516;-0.470;2022-10-26T06:48:51;4;4;
39955;PMS5003;25631;51.516;-0.470;2022-10-26T06:51:35;4;4;
39955;PMS5003;25631;51.516;-0.470;2022-10-26T06:54:18;3;2;
39955;PMS5003;25631;51.516;-0.470;2022-10-26T06:57:00;3;2;
39955;PMS5003;25631;51.516;-0.470;2022-10-26T06:59:38;3;2;
39955;PMS5003;25631;51.516;-0.470;2022-10-26T07:02:19;4;4;
39955;PMS5003;25631;51.516;-0.470;2022-10-26T07:04:56;4;4;
39955;PMS5003;25631;51.516;-0.470;2022-10-26T07:07:33;4;4;
39955;PMS5003;25631;51.516;-0.470;2022-10-26T07:10:14;5;4;
39955;PMS5003;25631;51.516;-0.470;2022-10-26T07:12:51;5;4;
39955;PMS5003;25631;51.516;-0.470;2022-10-26T07:15:27;5;4;
39955;PMS5003;25631;51.516;-0.470;2022-10-26T07:18:05;3;3;
39955;PMS5003;25631;51.516;-0.470;2022-10-26T07:20:42;2;2;
39955;PMS5003;25631;51.516;-0.470;2022-10-26T07:23:19;2;2;
39955;PMS5003;25631;51.516;-0.470;2022-10-26T07:25:58;2;2;
39955;PMS5003;25631;51.516;-0.470;2022-10-26T07:28:34;2;2;
39955;PMS5003;25631;51.516;-0.470;2022-10-26T07:31:11;2;2;
39955;PMS5003;25631;51.516;-0.470;2022-10-26T07:33:47;2;2;
39955;PMS5003;25631;51.516;-0.470;2022-10-26T07:36:23;2;2;
39955;PMS5003;25631;51.516;-0.470;2022-10-26T07:39:00;3;3;
39955;PMS5003;25631;51.516;-0.470;2022-10-26T07:41:36;4;3;
39955;PMS5003;25631;51.516;-0.470;2022-10-26T07:44:13;4;3;
39955;PMS5003;25631;51.516;-0.470;2022-10-26T07:46:49;3;2;
39955;PMS5003;25631;51.516;-0.470;2022-10-26T07:49:26;4;2;
39955;PMS5003;25631;51.516;-0.470;2022-10-26T07:52:03;4;2;
39955;PMS5003;25631;51.516;-0.470;2022-10-26T07:54:39;4;2;
39955;PMS5003;25631;51.516;-0.470;2022-10-26T07:57:15;4;2;
39955;PMS5003;25631;51.516;-0.470;2022-10-26T07:59:52;4;2;
39955;PMS5003;25631;51.516;-0.470;2022-10-26T08:02:28;4;2;
39955;PMS5003;25631;51.516;-0.470;2022-10-26T08:05:05;3;2;
39955;PMS5003;25631;51.516;-0.470;2022-10-26T08:07:42;3;2;
39955;PMS5003;25631;51.516;-0.470;2022-10-26T08:10:19;3;2;
39955;PMS5003;25631;51.516;-0.470;2022-10-26T08:12:56;4;2;
39955;PMS5003;25631;51.516;-0.470;2022-10-26T08:15:32;4;2;
39955;PMS5003;25631;51.516;-0.470;2022-10-26T08:18:08;4;2;
39955;PMS5003;25631;51.516;-0.470;2022-10-26T08:20:45;3;2;
39955;PMS5003;25631;51.516;-0.470;2022-10-26T08:23:22;4;3;
39955;PMS5003;25631;51.516;-0.470;2022-10-26T08:25:58;4;3;
39955;PMS5003;25631;51.516;-0.470;2022-10-26T08:28:35;4;3;
39955;PMS5003;25631;51.516;-0.470;2022-10-26T08:31:12;4;3;
39955;PMS5003;25631;51.516;-0.470;2022-10-26T08:33:48;4;3;
39955;PMS5003;25631;51.516;-0.470;2022-10-26T08:36:26;4;3;
39955;PMS5003;25631;51.516;-0.470;2022-10-26T08:39:03;4;3;
39955;PMS5003;25631;51.516;-0.470;2022-10-26T08:41:40;4;3;
39955;PMS5003;25631;51.516;-0.470;2022-10-26T08:44:21;4;3;
39955;PMS5003;25631;51.516;-0.470;2022-10-26T08:47:03;4;3;
39955;PMS5003;25631;51.516;-0.470;2022-10-26T08:49:43;4;3;
39955;PMS5003;25631;51.516;-0.470;2022-10-26T08:52:25;3;3;
39955;PMS5003;25631;51.516;-0.470;2022-10-26T08:55:09;3;3;
39955;PMS5003;25631;51.516;-0.470;2022-10-26T08:57:50;3;3;
39955;PMS5003;25631;51.516;-0.470;2022-10-26T09:00:28;3;2;
39955;PMS5003;25631;51.516;-0.470;2022-10-26T09:03:08;3;2;
39955;PMS5003;25631;51.516;-0.470;2022-10-26T09:05:52;3;2;
39955;PMS5003;25631;51.516;-0.470;2022-10-26T09:08:42;2;2;
39955;PMS5003;25631;51.516;-0.470;2022-10-26T09:11:30;2;2;
39955;PMS5003;25631;51.516;-0.470;2022-10-26T09:14:23;2;2;
39955;PMS5003;25631;51.516;-0.470;2022-10-26T09:17:11;2;2;
39955;PMS5003;25631;51.516;-0.470;2022-10-26T09:19:59;2;2;
39955;PMS5003;25631;51.516;-0.470;2022-10-26T09:22:48;2;2;
39955;PMS5003;25631;51.516;-0.470;2022-10-26T09:25:33;2;2;
39955;PMS5003;25631;51.516;-0.470;2022-10-26T09:28:15;2;2;
39955;PMS5003;25631;51.516;-0.470;2022-10-26T09:30:53;2;2;
39955;PMS5003;25631;51.516;-0.470;2022-10-26T09:33:33;2;2;
39955;PMS5003;25631;51.516;-0.470;2022-10-26T09:36:16;2;2;
39955;PMS5003;25631;51.516;-0.470;2022-10-26T09:38:55;2;2;
39955;PMS5003;25631;51.516;-0.470;2022-10-26T09:41:39;2;2;
39955;PMS5003;25631;51.516;-0.470;2022-10-26T09:44:20;2;2;
39955;PMS5003;25631;51.516;-0.470;2022-10-26T09:47:03;2;2;
39955;PMS5003;25631;51.516;-0.470;2022-10-26T09:49:46;2;2;
39955;PMS5003;25631;51.516;-0.470;2022-10-26T09:52:28;2;2;
39955;PMS5003;25631;51.516;-0.470;2022-10-26T09:55:04;2;2;
39955;PMS5003;25631;51.516;-0.470;2022-10-26T09:57:42;1;1;
39955;PMS5003;25631;51.516;-0.470;2022-10-26T10:00:21;1;1;
39955;PMS5003;25631;51.516;-0.470;2022-10-26T10:03:00;1;1;
39955;PMS5003;25631;51.516;-0.470;2022-10-26T10:05:36;2;2;
39955;PMS5003;25631;51.516;-0.470;2022-10-26T10:08:14;2;2;
39955;PMS5003;25631;51.516;-0.470;2022-10-26T10:10:56;2;2;
39955;PMS5003;25631;51.516;-0.470;2022-10-26T10:13:35;1;1;
39955;PMS5003;25631;51.516;-0.470;2022-10-26T10:16:19;1;1;
39955;PMS5003;25631;51.516;-0.470;2022-10-26T10:18:57;1;1;
39955;PMS5003;25631;51.516;-0.470;2022-10-26T10:21:35;1;1;
39955;PMS5003;25631;51.516;-0.470;2022-10-26T10:24:20;2;2;
39955;PMS5003;25631;51.516;-0.470;2022-10-26T10:27:00;2;2;
39955;PMS5003;25631;51.516;-0.470;2022-10-26T10:29:39;4;3;
39955;PMS5003;25631;51.516;-0.470;2022-10-26T10:32:18;4;3;
39955;PMS5003;25631;51.516;-0.470;2022-10-26T10:34:56;4;3;
39955;PMS5003;25631;51.516;-0.470;2022-10-26T10:37:35;3;3;
39955;PMS5003;25631;51.516;-0.470;2022-10-26T10:40:16;3;3;
39955;PMS5003;25631;51.516;-0.470;2022-10-26T10:43:02;3;3;
39955;PMS5003;25631;51.516;-0.470;2022-10-26T10:45:45;3;2;
39955;PMS5003;25631;51.516;-0.470;2022-10-26T10:48:24;3;2;
39955;PMS5003;25631;51.516;-0.470;2022-10-26T10:51:03;3;2;
39955;PMS5003;25631;51.516;-0.470;2022-10-26T10:53:44;3;2;
39955;PMS5003;25631;51.516;-0.470;2022-10-26T10:56:30;3;2;
39955;PMS5003;25631;51.516;-0.470;2022-10-26T10:59:16;3;2;
39955;PMS5003;25631;51.516;-0.470;2022-10-26T11:02:15;3;3;
39955;PMS5003;25631;51.516;-0.470;2022-10-26T11:05:09;3;3;
39955;PMS5003;25631;51.516;-0.470;2022-10-26T11:08:00;3;3;
39955;PMS5003;25631;51.516;-0.470;2022-10-26T11:10:41;3;3;
39955;PMS5003;25631;51.516;-0.470;2022-10-26T11:13:23;3;3;
39955;PMS5003;25631;51.516;-0.470;2022-10-26T11:16:08;3;3;
39955;PMS5003;25631;51.516;-0.470;2022-10-26T11:18:49;4;3;
39955;PMS5003;25631;51.516;-0.470;2022-10-26T11:21:30;3;2;
39955;PMS5003;25631;51.516;-0.470;2022-10-26T11:24:12;3;2;
39955;PMS5003;25631;51.516;-0.470;2022-10-26T11:26:55;3;1;
39955;PMS5003;25631;51.516;-0.470;2022-10-26T11:29:36;4;2;
39955;PMS5003;25631;51.516;-0.470;2022-10-26T11:32:19;4;2;
39955;PMS5003;25631;51.516;-0.470;2022-10-26T11:34:59;3;2;
39955;PMS5003;25631;51.516;-0.470;2022-10-26T11:37:44;3;2;
39955;PMS5003;25631;51.516;-0.470;2022-10-26T11:40:28;3;2;
39955;PMS5003;25631;51.516;-0.470;2022-10-26T11:43:16;3;2;
39955;PMS5003;25631;51.516;-0.470;2022-10-26T11:46:00;3;2;
39955;PMS5003;25631;51.516;-0.470;2022-10-26T11:48:42;3;2;
39955;PMS5003;25631;51.516;-0.470;2022-10-26T11:51:32;3;2;
39955;PMS5003;25631;51.516;-0.470;2022-10-26T11:54:14;3;2;
39955;PMS5003;25631;51.516;-0.470;2022-10-26T11:56:55;3;2;
39955;PMS5003;25631;51.516;-0.470;2022-10-26T11:59:34;3;2;
39955;PMS5003;25631;51.516;-0.470;2022-10-26T12:02:17;3;2;
39955;PMS5003;25631;51.516;-0.470;2022-10-26T12:04:58;3;2;
39955;PMS5003;25631;51.516;-0.470;2022-10-26T12:07:42;3;2;
39955;PMS5003;25631;51.516;-0.470;2022-10-26T12:10:24;3;2;
39955;PMS5003;25631;51.516;-0.470;2022-10-26T12:13:06;3;2;
39955;PMS5003;25631;51.516;-0.470;2022-10-26T12:15:51;3;3;
39955;PMS5003;25631;51.516;-0.470;2022-10-26T12:18:34;3;3;
39955;PMS5003;25631;51.516;-0.470;2022-10-26T12:21:17;3;3;
39955;PMS5003;25631;51.516;-0.470;2022-10-26T12:23:54;3;2;
39955;PMS5003;25631;51.516;-0.470;2022-10-26T12:26:37;3;2;
39955;PMS5003;25631;51.516;-0.470;2022-10-26T12:29:25;3;2;
39955;PMS5003;25631;51.516;-0.470;2022-10-26T12:33:26;3;3;
39955;PMS5003;25631;51.516;-0.470;2022-10-26T12:36:23;3;3;
39955;PMS5003;25631;51.516;-0.470;2022-10-26T12:39:26;3;3;
39955;PMS5003;25631;51.516;-0.470;2022-10-26T12:42:26;3;3;
39955;PMS5003;25631;51.516;-0.470;2022-10-26T12:45:14;3;3;
39955;PMS5003;25631;51.516;-0.470;2022-10-26T12:48:03;3;3;
39955;PMS5003;25631;51.516;-0.470;2022-10-26T12:50:40;3;3;
39955;PMS5003;25631;51.516;-0.470;2022-10-26T12:53:17;3;3;
39955;PMS5003;25631;51.516;-0.470;2022-10-26T12:56:02;3;3;
39955;PMS5003;25631;51.516;-0.470;2022-10-26T12:58:56;3;3;
39955;PMS5003;25631;51.516;-0.470;2022-10-26T13:01:49;3;3;
39955;PMS5003;25631;51.516;-0.470;2022-10-26T13:04:38;3;3;
39955;PMS5003;25631;51.516;-0.470;2022-10-26T13:07:33;2;2;
39955;PMS5003;25631;51.516;-0.470;2022-10-26T13:10:17;2;2;
39955;PMS5003;25631;51.516;-0.470;2022-10-26T13:12:56;2;2;
39955;PMS5003;25631;51.516;-0.470;2022-10-26T13:15:36;3;2;
39955;PMS5003;25631;51.516;-0.470;2022-10-26T13:18:15;3;2;
39955;PMS5003;25631;51.516;-0.470;2022-10-26T13:20:53;3;2;
39955;PMS5003;25631;51.516;-0.470;2022-10-26T13:23:39;2;1;
39955;PMS5003;25631;51.516;-0.470;2022-10-26T13:26:18;2;1;
39955;PMS5003;25631;51.516;-0.470;2022-10-26T13:28:57;2;1;
39955;PMS5003;25631;51.516;-0.470;2022-10-26T13:31:58;3;2;
39955;PMS5003;25631;51.516;-0.470;2022-10-26T13:34:35;4;3;
39955;PMS5003;25631;51.516;-0.470;2022-10-26T13:37:17;4;3;
39955;PMS5003;25631;51.516;-0.470;2022-10-26T13:39:59;5;3;
39955;PMS5003;25631;51.516;-0.470;2022-10-26T13:42:41;5;3;
39955;PMS5003;25631;51.516;-0.470;2022-10-26T13:45:21;5;3;
39955;PMS5003;25631;51.516;-0.470;2022-10-26T13:48:02;5;3;
39955;PMS5003;25631;51.516;-0.470;2022-10-26T13:50:43;5;3;
39955;PMS5003;25631;51.516;-0.470;2022-10-26T13:53:24;5;3;
39955;PMS5003;25631;51.516;-0.470;2022-10-26T13:56:13;5;3;
39955;PMS5003;25631;51.516;-0.470;2022-10-26T13:58:57;5;3;
39955;PMS5003;25631;51.516;-0.470;2022-10-26T14:01:37;5;3;
39955;PMS5003;25631;51.516;-0.470;2022-10-26T14:04:14;6;3;
39955;PMS5003;25631;51.516;-0.470;2022-10-26T14:06:51;6;3;
39955;PMS5003;25631;51.516;-0.470;2022-10-26T14:09:29;6;3;
39955;PMS5003;25631;51.516;-0.470;2022-10-26T14:12:08;7;3;
39955;PMS5003;25631;51.516;-0.470;2022-10-26T14:14:46;7;3;
39955;PMS5003;25631;51.516;-0.470;2022-10-26T14:17:23;7;3;
39955;PMS5003;25631;51.516;-0.470;2022-10-26T14:20:01;7;3;
39955;PMS5003;25631;51.516;-0.470;2022-10-26T14:22:38;7;3;
39955;PMS5003;25631;51.516;-0.470;2022-10-26T14:25:17;7;3;
39955;PMS5003;25631;51.516;-0.470;2022-10-26T14:27:55;6;3;
39955;PMS5003;25631;51.516;-0.470;2022-10-26T14:30:32;6;3;
39955;PMS5003;25631;51.516;-0.470;2022-10-26T14:33:16;6;3;
39955;PMS5003;25631;51.516;-0.470;2022-10-26T14:35:53;6;3;
39955;PMS5003;25631;51.516;-0.470;2022-10-26T14:38:32;5;2;
39955;PMS5003;25631;51.516;-0.470;2022-10-26T14:41:16;5;2;
39955;PMS5003;25631;51.516;-0.470;2022-10-26T14:43:54;5;2;
39955;PMS5003;25631;51.516;-0.470;2022-10-26T14:46:33;6;3;
39955;PMS5003;25631;51.516;-0.470;2022-10-26T14:49:15;6;3;
39955;PMS5003;25631;51.516;-0.470;2022-10-26T14:51:56;5;2;
39955;PMS5003;25631;51.516;-0.470;2022-10-26T14:54:33;5;2;
39955;PMS5003;25631;51.516;-0.470;2022-10-26T14:57:24;5;2;
39955;PMS5003;25631;51.516;-0.470;2022-10-26T15:00:11;4;3;
39955;PMS5003;25631;51.516;-0.470;2022-10-26T15:02:50;4;3;
39955;PMS5003;25631;51.516;-0.470;2022-10-26T15:05:30;4;3;
39955;PMS5003;25631;51.516;-0.470;2022-10-26T15:08:39;4;3;
39955;PMS5003;25631;51.516;-0.470;2022-10-26T15:11:16;4;3;
39955;PMS5003;25631;51.516;-0.470;2022-10-26T15:13:53;4;3;
39955;PMS5003;25631;51.516;-0.470;2022-10-26T15:16:31;4;3;
39955;PMS5003;25631;51.516;-0.470;2022-10-26T15:19:10;4;3;
39955;PMS5003;25631;51.516;-0.470;2022-10-26T15:21:51;4;3;
39955;PMS5003;25631;51.516;-0.470;2022-10-26T15:24:30;3;2;
39955;PMS5003;25631;51.516;-0.470;2022-10-26T15:27:11;3;2;
39955;PMS5003;25631;51.516;-0.470;2022-10-26T15:29:51;3;2;
39955;PMS5003;25631;51.516;-0.470;2022-10-26T15:32:43;2;2;
39955;PMS5003;25631;51.516;-0.470;2022-10-26T15:35:22;2;2;
39955;PMS5003;25631;51.516;-0.470;2022-10-26T15:38:01;2;2;
39955;PMS5003;25631;51.516;-0.470;2022-10-26T15:40:40;2;2;
39955;PMS5003;25631;51.516;-0.470;2022-10-26T15:43:18;2;2;
39955;PMS5003;25631;51.516;-0.470;2022-10-26T15:45:54;2;2;
39955;PMS5003;25631;51.516;-0.470;2022-10-26T15:48:31;2;2;
39955;PMS5003;25631;51.516;-0.470;2022-10-26T15:51:09;2;2;
39955;PMS5003;25631;51.516;-0.470;2022-10-26T15:53:47;2;2;
39955;PMS5003;25631;51.516;-0.470;2022-10-26T15:56:24;2;2;
39955;PMS5003;25631;51.516;-0.470;2022-10-26T15:59:01;2;2;
39955;PMS5003;25631;51.516;-0.470;2022-10-26T16:01:38;2;2;
39955;PMS5003;25631;51.516;-0.470;2022-10-26T16:04:14;2;2;
39955;PMS5003;25631;51.516;-0.470;2022-10-26T16:06:50;2;2;
39955;PMS5003;25631;51.516;-0.470;2022-10-26T16:09:28;2;2;
39955;PMS5003;25631;51.516;-0.470;2022-10-26T16:12:04;2;2;
39955;PMS5003;25631;51.516;-0.470;2022-10-26T16:14:43;2;2;
39955;PMS5003;25631;51.516;-0.470;2022-10-26T16:17:19;2;2;
39955;PMS5003;25631;51.516;-0.470;2022-10-26T16:19:55;2;2;
39955;PMS5003;25631;51.516;-0.470;2022-10-26T16:22:32;2;2;
39955;PMS5003;25631;51.516;-0.470;2022-10-26T16:25:08;2;2;
39955;PMS5003;25631;51.516;-0.470;2022-10-26T16:27:45;0;0;
39955;PMS5003;25631;51.516;-0.470;2022-10-26T16:30:22;0;0;
39955;PMS5003;25631;51.516;-0.470;2022-10-26T16:32:58;0;0;
39955;PMS5003;25631;51.516;-0.470;2022-10-26T16:35:35;0;0;
39955;PMS5003;25631;51.516;-0.470;2022-10-26T16:38:12;1;1;
39955;PMS5003;25631;51.516;-0.470;2022-10-26T16:40:48;1;1;
39955;PMS5003;25631;51.516;-0.470;2022-10-26T16:43:25;2;2;
39955;PMS5003;25631;51.516;-0.470;2022-10-26T16:46:03;2;2;
39955;PMS5003;25631;51.516;-0.470;2022-10-26T16:48:41;2;2;
39955;PMS5003;25631;51.516;-0.470;2022-10-26T16:51:19;3;2;
39955;PMS5003;25631;51.516;-0.470;2022-10-26T16:53:57;3;2;
39955;PMS5003;25631;51.516;-0.470;2022-10-26T16:56:33;3;2;
39955;PMS5003;25631;51.516;-0.470;2022-10-26T16:59:10;3;2;
39955;PMS5003;25631;51.516;-0.470;2022-10-26T17:01:46;3;2;
39955;PMS5003;25631;51.516;-0.470;2022-10-26T17:04:23;3;2;
39955;PMS5003;25631;51.516;-0.470;2022-10-26T17:06:59;4;3;
39955;PMS5003;25631;51.516;-0.470;2022-10-26T17:09:35;4;3;
39955;PMS5003;25631;51.516;-0.470;2022-10-26T17:12:12;4;3;
39955;PMS5003;25631;51.516;-0.470;2022-10-26T17:14:48;3;3;
39955;PMS5003;25631;51.516;-0.470;2022-10-26T17:17:25;3;3;
39955;PMS5003;25631;51.516;-0.470;2022-10-26T17:20:01;3;3;
39955;PMS5003;25631;51.516;-0.470;2022-10-26T17:22:38;3;3;
39955;PMS5003;25631;51.516;-0.470;2022-10-26T17:25:14;3;3;
39955;PMS5003;25631;51.516;-0.470;2022-10-26T17:27:51;3;3;
39955;PMS5003;25631;51.516;-0.470;2022-10-26T17:30:27;3;3;
39955;PMS5003;25631;51.516;-0.470;2022-10-26T17:33:04;3;3;
39955;PMS5003;25631;51.516;-0.470;2022-10-26T17:35:41;3;3;
39955;PMS5003;25631;51.516;-0.470;2022-10-26T17:38:17;4;3;
39955;PMS5003;25631;51.516;-0.470;2022-10-26T17:40:54;4;3;
39955;PMS5003;25631;51.516;-0.470;2022-10-26T17:43:35;4;3;
39955;PMS5003;25631;51.516;-0.470;2022-10-26T17:46:13;4;3;
39955;PMS5003;25631;51.516;-0.470;2022-10-26T17:48:53;4;3;
39955;PMS5003;25631;51.516;-0.470;2022-10-26T17:51:29;4;3;
39955;PMS5003;25631;51.516;-0.470;2022-10-26T17:54:06;4;3;
39955;PMS5003;25631;51.516;-0.470;2022-10-26T17:56:42;4;3;
39955;PMS5003;25631;51.516;-0.470;2022-10-26T17:59:21;4;3;
39955;PMS5003;25631;51.516;-0.470;2022-10-26T18:01:57;4;3;
39955;PMS5003;25631;51.516;-0.470;2022-10-26T18:04:34;4;3;